sensor_id;sensor_type;location;lat;lon;timestamp;P1;durP1;ratioP1;P2;durP2;ratioP2
22094;SDS011;24083;55.670;37.568;2023-09-30T00:03:13;15.45;;;8.02;;
22094;SDS011;24083;55.670;37.568;2023-09-30T00:05:38;13.25;;;8.27;;
22094;SDS011;24083;55.670;37.568;2023-09-30T00:15:42;14.18;;;7.63;;
22094;SDS011;24083;55.670;37.568;2023-09-30T00:21:46;14.35;;;7.95;;
22094;SDS011;24083;55.670;37.568;2023-09-30T00:24:13;13.70;;;8.23;;
22094;SDS011;24083;55.670;37.568;2023-09-30T00:26:39;13.05;;;8.25;;
22094;SDS011;24083;55.670;37.568;2023-09-30T00:29:05;13.05;;;7.55;;
22094;SDS011;24083;55.670;37.568;2023-09-30T00:31:32;16.05;;;8.10;;
22094;SDS011;24083;55.670;37.568;2023-09-30T00:34:06;14.75;;;8.27;;
22094;SDS011;24083;55.670;37.568;2023-09-30T00:39:07;12.48;;;7.93;;
22094;SDS011;24083;55.670;37.568;2023-09-30T00:41:33;14.82;;;7.90;;
22094;SDS011;24083;55.670;37.568;2023-09-30T00:44:01;11.80;;;7.90;;
22094;SDS011;24083;55.670;37.568;2023-09-30T00:46:41;16.25;;;8.00;;
22094;SDS011;24083;55.670;37.568;2023-09-30T00:49:08;12.50;;;8.50;;
22094;SDS011;24083;55.670;37.568;2023-09-30T00:51:35;15.85;;;7.88;;
22094;SDS011;24083;55.670;37.568;2023-09-30T00:54:02;12.27;;;6.85;;
22094;SDS011;24083;55.670;37.568;2023-09-30T00:56:30;13.57;;;8.10;;
22094;SDS011;24083;55.670;37.568;2023-09-30T01:02:04;13.80;;;7.95;;
22094;SDS011;24083;55.670;37.568;2023-09-30T01:04:33;15.75;;;8.35;;
22094;SDS011;24083;55.670;37.568;2023-09-30T01:06:59;10.10;;;7.03;;
22094;SDS011;24083;55.670;37.568;2023-09-30T01:09:32;14.57;;;7.93;;
22094;SDS011;24083;55.670;37.568;2023-09-30T01:11:59;16.52;;;8.18;;
22094;SDS011;24083;55.670;37.568;2023-09-30T01:16:56;12.60;;;8.20;;
22094;SDS011;24083;55.670;37.568;2023-09-30T01:19:24;15.60;;;8.30;;
22094;SDS011;24083;55.670;37.568;2023-09-30T01:21:55;12.63;;;7.87;;
22094;SDS011;24083;55.670;37.568;2023-09-30T01:24:26;14.77;;;7.80;;
22094;SDS011;24083;55.670;37.568;2023-09-30T01:26:53;14.10;;;7.60;;
22094;SDS011;24083;55.670;37.568;2023-09-30T01:29:19;12.25;;;8.15;;
22094;SDS011;24083;55.670;37.568;2023-09-30T01:31:44;17.33;;;7.90;;
22094;SDS011;24083;55.670;37.568;2023-09-30T01:34:13;14.23;;;8.88;;
22094;SDS011;24083;55.670;37.568;2023-09-30T01:36:41;17.15;;;8.50;;
22094;SDS011;24083;55.670;37.568;2023-09-30T01:41:43;13.57;;;8.38;;
22094;SDS011;24083;55.670;37.568;2023-09-30T01:46:39;15.30;;;8.30;;
22094;SDS011;24083;55.670;37.568;2023-09-30T01:49:17;12.37;;;8.13;;
22094;SDS011;24083;55.670;37.568;2023-09-30T01:51:44;11.93;;;8.23;;
22094;SDS011;24083;55.670;37.568;2023-09-30T01:54:11;17.65;;;8.73;;
22094;SDS011;24083;55.670;37.568;2023-09-30T01:56:37;12.43;;;8.00;;
22094;SDS011;24083;55.670;37.568;2023-09-30T01:59:04;15.65;;;7.72;;
22094;SDS011;24083;55.670;37.568;2023-09-30T02:01:29;15.85;;;8.07;;
22094;SDS011;24083;55.670;37.568;2023-09-30T02:06:27;12.13;;;7.63;;
22094;SDS011;24083;55.670;37.568;2023-09-30T02:08:54;13.32;;;7.43;;
22094;SDS011;24083;55.670;37.568;2023-09-30T02:11:20;12.70;;;7.97;;
22094;SDS011;24083;55.670;37.568;2023-09-30T02:13:47;13.32;;;7.65;;
22094;SDS011;24083;55.670;37.568;2023-09-30T02:16:14;14.60;;;7.72;;
22094;SDS011;24083;55.670;37.568;2023-09-30T02:18:43;13.80;;;8.33;;
22094;SDS011;24083;55.670;37.568;2023-09-30T02:21:22;12.05;;;7.95;;
22094;SDS011;24083;55.670;37.568;2023-09-30T02:23:47;12.93;;;8.48;;
22094;SDS011;24083;55.670;37.568;2023-09-30T02:26:15;16.30;;;7.70;;
22094;SDS011;24083;55.670;37.568;2023-09-30T02:28:41;10.15;;;8.05;;
22094;SDS011;24083;55.670;37.568;2023-09-30T02:31:07;11.93;;;8.40;;
22094;SDS011;24083;55.670;37.568;2023-09-30T02:36:26;12.82;;;7.95;;
22094;SDS011;24083;55.670;37.568;2023-09-30T02:38:54;11.75;;;8.00;;
22094;SDS011;24083;55.670;37.568;2023-09-30T02:41:21;12.35;;;8.27;;
22094;SDS011;24083;55.670;37.568;2023-09-30T02:43:47;13.23;;;8.20;;
22094;SDS011;24083;55.670;37.568;2023-09-30T02:46:14;14.23;;;8.40;;
22094;SDS011;24083;55.670;37.568;2023-09-30T02:48:41;14.57;;;8.32;;
22094;SDS011;24083;55.670;37.568;2023-09-30T02:51:36;18.80;;;8.95;;
22094;SDS011;24083;55.670;37.568;2023-09-30T02:54:04;15.00;;;8.70;;
22094;SDS011;24083;55.670;37.568;2023-09-30T02:56:33;16.00;;;8.43;;
22094;SDS011;24083;55.670;37.568;2023-09-30T02:58:59;14.93;;;8.57;;
22094;SDS011;24083;55.670;37.568;2023-09-30T03:01:25;14.75;;;8.43;;
22094;SDS011;24083;55.670;37.568;2023-09-30T03:03:52;14.65;;;8.30;;
22094;SDS011;24083;55.670;37.568;2023-09-30T03:06:18;12.52;;;8.13;;
22094;SDS011;24083;55.670;37.568;2023-09-30T03:08:45;13.25;;;8.15;;
22094;SDS011;24083;55.670;37.568;2023-09-30T03:11:29;16.05;;;8.82;;
22094;SDS011;24083;55.670;37.568;2023-09-30T03:14:17;11.45;;;8.23;;
22094;SDS011;24083;55.670;37.568;2023-09-30T03:16:44;12.40;;;8.27;;
22094;SDS011;24083;55.670;37.568;2023-09-30T03:22:03;12.40;;;8.63;;
22094;SDS011;24083;55.670;37.568;2023-09-30T03:24:31;17.73;;;8.80;;
22094;SDS011;24083;55.670;37.568;2023-09-30T03:26:57;15.02;;;8.77;;
22094;SDS011;24083;55.670;37.568;2023-09-30T03:29:39;12.73;;;8.55;;
22094;SDS011;24083;55.670;37.568;2023-09-30T03:32:07;11.60;;;8.70;;
22094;SDS011;24083;55.670;37.568;2023-09-30T03:34:34;15.30;;;8.93;;
22094;SDS011;24083;55.670;37.568;2023-09-30T03:37:03;15.00;;;8.93;;
22094;SDS011;24083;55.670;37.568;2023-09-30T03:39:32;16.58;;;9.13;;
22094;SDS011;24083;55.670;37.568;2023-09-30T03:41:59;14.88;;;8.25;;
22094;SDS011;24083;55.670;37.568;2023-09-30T03:44:27;17.15;;;8.98;;
22094;SDS011;24083;55.670;37.568;2023-09-30T03:46:54;12.95;;;8.27;;
22094;SDS011;24083;55.670;37.568;2023-09-30T03:49:21;12.70;;;8.60;;
22094;SDS011;24083;55.670;37.568;2023-09-30T03:54:27;14.20;;;9.20;;
22094;SDS011;24083;55.670;37.568;2023-09-30T04:00:13;12.43;;;9.07;;
22094;SDS011;24083;55.670;37.568;2023-09-30T04:02:44;13.00;;;8.88;;
22094;SDS011;24083;55.670;37.568;2023-09-30T04:08:38;12.82;;;7.90;;
22094;SDS011;24083;55.670;37.568;2023-09-30T04:16:51;14.25;;;9.27;;
22094;SDS011;24083;55.670;37.568;2023-09-30T04:21:49;13.40;;;8.48;;
22094;SDS011;24083;55.670;37.568;2023-09-30T04:24:15;9.32;;;5.78;;
22094;SDS011;24083;55.670;37.568;2023-09-30T04:26:43;9.85;;;5.75;;
22094;SDS011;24083;55.670;37.568;2023-09-30T04:29:11;11.88;;;7.85;;
22094;SDS011;24083;55.670;37.568;2023-09-30T04:34:35;10.20;;;6.10;;
22094;SDS011;24083;55.670;37.568;2023-09-30T04:37:03;18.63;;;8.27;;
22094;SDS011;24083;55.670;37.568;2023-09-30T04:39:32;15.02;;;8.35;;
22094;SDS011;24083;55.670;37.568;2023-09-30T04:42:51;11.38;;;8.70;;
22094;SDS011;24083;55.670;37.568;2023-09-30T04:45:21;13.55;;;8.60;;
22094;SDS011;24083;55.670;37.568;2023-09-30T04:53:37;17.63;;;8.98;;
22094;SDS011;24083;55.670;37.568;2023-09-30T04:56:10;12.48;;;7.95;;
22094;SDS011;24083;55.670;37.568;2023-09-30T04:58:37;18.70;;;8.80;;
22094;SDS011;24083;55.670;37.568;2023-09-30T05:01:04;15.32;;;9.07;;
22094;SDS011;24083;55.670;37.568;2023-09-30T05:03:30;17.25;;;8.40;;
22094;SDS011;24083;55.670;37.568;2023-09-30T05:09:08;14.05;;;8.93;;
22094;SDS011;24083;55.670;37.568;2023-09-30T05:11:39;11.75;;;8.63;;
22094;SDS011;24083;55.670;37.568;2023-09-30T05:14:06;13.65;;;8.45;;
22094;SDS011;24083;55.670;37.568;2023-09-30T05:16:33;15.60;;;8.40;;
22094;SDS011;24083;55.670;37.568;2023-09-30T05:22:00;17.70;;;8.85;;
22094;SDS011;24083;55.670;37.568;2023-09-30T05:24:27;13.67;;;8.83;;
22094;SDS011;24083;55.670;37.568;2023-09-30T05:26:54;15.75;;;8.35;;
22094;SDS011;24083;55.670;37.568;2023-09-30T05:29:20;14.40;;;8.38;;
22094;SDS011;24083;55.670;37.568;2023-09-30T05:34:41;12.05;;;7.47;;
22094;SDS011;24083;55.670;37.568;2023-09-30T05:37:08;17.73;;;8.38;;
22094;SDS011;24083;55.670;37.568;2023-09-30T05:39:34;12.95;;;7.38;;
22094;SDS011;24083;55.670;37.568;2023-09-30T05:44:32;13.38;;;8.10;;
22094;SDS011;24083;55.670;37.568;2023-09-30T05:47:04;11.40;;;7.55;;
22094;SDS011;24083;55.670;37.568;2023-09-30T05:49:31;15.02;;;8.15;;
22094;SDS011;24083;55.670;37.568;2023-09-30T05:52:07;13.88;;;8.10;;
22094;SDS011;24083;55.670;37.568;2023-09-30T05:54:34;15.05;;;8.18;;
22094;SDS011;24083;55.670;37.568;2023-09-30T05:57:01;11.23;;;7.00;;
22094;SDS011;24083;55.670;37.568;2023-09-30T05:59:29;13.40;;;8.02;;
22094;SDS011;24083;55.670;37.568;2023-09-30T06:01:59;12.93;;;8.60;;
22094;SDS011;24083;55.670;37.568;2023-09-30T06:04:25;12.77;;;8.30;;
22094;SDS011;24083;55.670;37.568;2023-09-30T06:06:58;16.48;;;8.25;;
22094;SDS011;24083;55.670;37.568;2023-09-30T06:09:23;15.82;;;8.10;;
22094;SDS011;24083;55.670;37.568;2023-09-30T06:11:50;18.23;;;7.40;;
22094;SDS011;24083;55.670;37.568;2023-09-30T06:14:18;15.18;;;7.82;;
22094;SDS011;24083;55.670;37.568;2023-09-30T06:16:44;14.30;;;8.27;;
22094;SDS011;24083;55.670;37.568;2023-09-30T06:19:11;14.25;;;7.82;;
22094;SDS011;24083;55.670;37.568;2023-09-30T06:21:46;16.13;;;8.20;;
22094;SDS011;24083;55.670;37.568;2023-09-30T06:24:12;13.15;;;8.10;;
22094;SDS011;24083;55.670;37.568;2023-09-30T06:26:40;13.45;;;7.72;;
22094;SDS011;24083;55.670;37.568;2023-09-30T06:29:06;16.90;;;8.57;;
22094;SDS011;24083;55.670;37.568;2023-09-30T06:31:38;14.93;;;8.55;;
22094;SDS011;24083;55.670;37.568;2023-09-30T06:34:06;20.73;;;8.80;;
22094;SDS011;24083;55.670;37.568;2023-09-30T06:36:33;14.00;;;8.32;;
22094;SDS011;24083;55.670;37.568;2023-09-30T06:39:01;14.10;;;7.93;;
22094;SDS011;24083;55.670;37.568;2023-09-30T06:41:31;14.77;;;8.40;;
22094;SDS011;24083;55.670;37.568;2023-09-30T06:43:57;13.98;;;8.23;;
22094;SDS011;24083;55.670;37.568;2023-09-30T06:46:31;15.23;;;8.10;;
22094;SDS011;24083;55.670;37.568;2023-09-30T06:48:58;16.50;;;8.45;;
22094;SDS011;24083;55.670;37.568;2023-09-30T06:51:32;18.27;;;8.77;;
22094;SDS011;24083;55.670;37.568;2023-09-30T06:56:57;14.93;;;8.68;;
22094;SDS011;24083;55.670;37.568;2023-09-30T07:02:25;16.63;;;8.45;;
22094;SDS011;24083;55.670;37.568;2023-09-30T07:04:51;13.23;;;7.30;;
22094;SDS011;24083;55.670;37.568;2023-09-30T07:07:18;19.63;;;8.25;;
22094;SDS011;24083;55.670;37.568;2023-09-30T07:09:44;14.40;;;8.50;;
22094;SDS011;24083;55.670;37.568;2023-09-30T07:12:11;16.55;;;8.07;;
22094;SDS011;24083;55.670;37.568;2023-09-30T07:14:38;22.92;;;8.10;;
22094;SDS011;24083;55.670;37.568;2023-09-30T07:19:43;26.05;;;9.48;;
22094;SDS011;24083;55.670;37.568;2023-09-30T07:22:10;13.43;;;8.18;;
22094;SDS011;24083;55.670;37.568;2023-09-30T07:24:38;16.67;;;8.55;;
22094;SDS011;24083;55.670;37.568;2023-09-30T07:27:04;20.83;;;8.52;;
22094;SDS011;24083;55.670;37.568;2023-09-30T07:29:32;15.65;;;8.00;;
22094;SDS011;24083;55.670;37.568;2023-09-30T07:32:10;16.08;;;6.90;;
22094;SDS011;24083;55.670;37.568;2023-09-30T07:34:36;22.70;;;8.68;;
22094;SDS011;24083;55.670;37.568;2023-09-30T07:37:03;16.08;;;8.25;;
22094;SDS011;24083;55.670;37.568;2023-09-30T07:39:30;15.88;;;8.20;;
22094;SDS011;24083;55.670;37.568;2023-09-30T07:41:57;14.35;;;8.13;;
22094;SDS011;24083;55.670;37.568;2023-09-30T07:44:25;17.83;;;8.10;;
22094;SDS011;24083;55.670;37.568;2023-09-30T07:46:52;13.02;;;8.23;;
22094;SDS011;24083;55.670;37.568;2023-09-30T07:49:17;18.42;;;8.02;;
22094;SDS011;24083;55.670;37.568;2023-09-30T07:51:44;19.50;;;7.97;;
22094;SDS011;24083;55.670;37.568;2023-09-30T07:56:39;15.93;;;8.23;;
22094;SDS011;24083;55.670;37.568;2023-09-30T07:59:07;18.23;;;7.03;;
22094;SDS011;24083;55.670;37.568;2023-09-30T08:07:18;12.82;;;7.72;;
22094;SDS011;24083;55.670;37.568;2023-09-30T08:12:15;15.70;;;7.43;;
22094;SDS011;24083;55.670;37.568;2023-09-30T08:14:42;13.55;;;7.32;;
22094;SDS011;24083;55.670;37.568;2023-09-30T08:17:09;13.45;;;7.38;;
22094;SDS011;24083;55.670;37.568;2023-09-30T08:19:37;17.67;;;7.40;;
22094;SDS011;24083;55.670;37.568;2023-09-30T08:22:03;13.98;;;6.80;;
22094;SDS011;24083;55.670;37.568;2023-09-30T08:27:08;11.18;;;6.78;;
22094;SDS011;24083;55.670;37.568;2023-09-30T08:29:43;12.10;;;5.97;;
22094;SDS011;24083;55.670;37.568;2023-09-30T08:32:10;13.60;;;6.80;;
22094;SDS011;24083;55.670;37.568;2023-09-30T08:37:06;12.07;;;6.53;;
22094;SDS011;24083;55.670;37.568;2023-09-30T08:39:37;16.48;;;6.68;;
22094;SDS011;24083;55.670;37.568;2023-09-30T08:42:04;12.75;;;6.88;;
22094;SDS011;24083;55.670;37.568;2023-09-30T08:44:33;13.30;;;6.85;;
22094;SDS011;24083;55.670;37.568;2023-09-30T08:50:06;10.27;;;6.70;;
22094;SDS011;24083;55.670;37.568;2023-09-30T08:52:34;13.80;;;6.68;;
22094;SDS011;24083;55.670;37.568;2023-09-30T08:55:01;11.70;;;5.78;;
22094;SDS011;24083;55.670;37.568;2023-09-30T08:57:29;14.85;;;6.40;;
22094;SDS011;24083;55.670;37.568;2023-09-30T08:59:56;10.50;;;5.53;;
22094;SDS011;24083;55.670;37.568;2023-09-30T09:04:49;11.27;;;5.28;;
22094;SDS011;24083;55.670;37.568;2023-09-30T09:07:16;17.80;;;6.35;;
22094;SDS011;24083;55.670;37.568;2023-09-30T09:09:47;10.90;;;5.88;;
22094;SDS011;24083;55.670;37.568;2023-09-30T09:12:30;16.55;;;6.40;;
22094;SDS011;24083;55.670;37.568;2023-09-30T09:14:59;14.60;;;6.28;;
22094;SDS011;24083;55.670;37.568;2023-09-30T09:23:09;15.48;;;6.50;;
22094;SDS011;24083;55.670;37.568;2023-09-30T09:25:41;8.45;;;4.10;;
22094;SDS011;24083;55.670;37.568;2023-09-30T09:28:18;15.70;;;5.80;;
22094;SDS011;24083;55.670;37.568;2023-09-30T09:30:48;12.48;;;5.63;;
22094;SDS011;24083;55.670;37.568;2023-09-30T09:33:16;12.77;;;5.85;;
22094;SDS011;24083;55.670;37.568;2023-09-30T09:35:43;15.40;;;5.97;;
22094;SDS011;24083;55.670;37.568;2023-09-30T09:38:13;12.52;;;5.63;;
22094;SDS011;24083;55.670;37.568;2023-09-30T09:40:39;10.85;;;6.57;;
22094;SDS011;24083;55.670;37.568;2023-09-30T09:43:07;9.65;;;6.07;;
22094;SDS011;24083;55.670;37.568;2023-09-30T09:45:36;13.48;;;5.80;;
22094;SDS011;24083;55.670;37.568;2023-09-30T09:48:05;11.40;;;6.30;;
22094;SDS011;24083;55.670;37.568;2023-09-30T09:50:34;11.45;;;6.10;;
22094;SDS011;24083;55.670;37.568;2023-09-30T09:53:04;13.57;;;5.70;;
22094;SDS011;24083;55.670;37.568;2023-09-30T09:55:31;6.93;;;3.90;;
22094;SDS011;24083;55.670;37.568;2023-09-30T09:57:59;10.07;;;5.40;;
22094;SDS011;24083;55.670;37.568;2023-09-30T10:00:28;11.48;;;6.10;;
22094;SDS011;24083;55.670;37.568;2023-09-30T10:05:38;11.68;;;5.75;;
22094;SDS011;24083;55.670;37.568;2023-09-30T10:08:11;13.27;;;6.70;;
22094;SDS011;24083;55.670;37.568;2023-09-30T10:10:38;11.20;;;5.18;;
22094;SDS011;24083;55.670;37.568;2023-09-30T10:24:34;16.20;;;6.38;;
22094;SDS011;24083;55.670;37.568;2023-09-30T10:40:46;9.77;;;5.07;;
22094;SDS011;24083;55.670;37.568;2023-09-30T10:46:00;14.48;;;6.72;;
22094;SDS011;24083;55.670;37.568;2023-09-30T10:54:16;12.35;;;6.40;;
22094;SDS011;24083;55.670;37.568;2023-09-30T11:00:22;15.27;;;6.95;;
22094;SDS011;24083;55.670;37.568;2023-09-30T11:02:49;15.27;;;6.55;;
22094;SDS011;24083;55.670;37.568;2023-09-30T11:08:25;11.38;;;6.18;;
22094;SDS011;24083;55.670;37.568;2023-09-30T11:12:14;11.88;;;6.03;;
22094;SDS011;24083;55.670;37.568;2023-09-30T11:14:42;10.05;;;5.88;;
22094;SDS011;24083;55.670;37.568;2023-09-30T11:17:08;12.57;;;6.75;;
22094;SDS011;24083;55.670;37.568;2023-09-30T11:22:31;11.82;;;6.80;;
22094;SDS011;24083;55.670;37.568;2023-09-30T11:25:01;13.63;;;6.85;;
22094;SDS011;24083;55.670;37.568;2023-09-30T11:27:29;11.40;;;5.95;;
22094;SDS011;24083;55.670;37.568;2023-09-30T11:29:58;12.73;;;6.50;;
22094;SDS011;24083;55.670;37.568;2023-09-30T11:41:17;11.40;;;6.10;;
22094;SDS011;24083;55.670;37.568;2023-09-30T11:46:47;12.48;;;5.80;;
22094;SDS011;24083;55.670;37.568;2023-09-30T11:49:37;12.60;;;4.80;;
22094;SDS011;24083;55.670;37.568;2023-09-30T11:52:07;10.90;;;6.57;;
22094;SDS011;24083;55.670;37.568;2023-09-30T11:54:44;11.18;;;6.03;;
22094;SDS011;24083;55.670;37.568;2023-09-30T11:57:11;10.95;;;6.20;;
22094;SDS011;24083;55.670;37.568;2023-09-30T11:59:40;12.90;;;5.40;;
22094;SDS011;24083;55.670;37.568;2023-09-30T12:02:08;12.98;;;5.60;;
22094;SDS011;24083;55.670;37.568;2023-09-30T12:04:39;11.88;;;6.00;;
22094;SDS011;24083;55.670;37.568;2023-09-30T12:07:06;8.63;;;5.47;;
22094;SDS011;24083;55.670;37.568;2023-09-30T12:09:34;17.33;;;6.25;;
22094;SDS011;24083;55.670;37.568;2023-09-30T12:12:03;16.10;;;5.28;;
22094;SDS011;24083;55.670;37.568;2023-09-30T12:14:39;12.93;;;6.13;;
22094;SDS011;24083;55.670;37.568;2023-09-30T12:17:06;13.27;;;6.20;;
22094;SDS011;24083;55.670;37.568;2023-09-30T12:19:37;8.18;;;4.65;;
22094;SDS011;24083;55.670;37.568;2023-09-30T12:22:03;14.15;;;6.35;;
22094;SDS011;24083;55.670;37.568;2023-09-30T12:24:29;11.35;;;5.70;;
22094;SDS011;24083;55.670;37.568;2023-09-30T12:26:57;10.90;;;5.75;;
22094;SDS011;24083;55.670;37.568;2023-09-30T12:31:58;9.10;;;5.43;;
22094;SDS011;24083;55.670;37.568;2023-09-30T12:34:25;13.95;;;5.97;;
22094;SDS011;24083;55.670;37.568;2023-09-30T12:36:53;12.50;;;6.15;;
22094;SDS011;24083;55.670;37.568;2023-09-30T12:42:03;12.00;;;6.43;;
22094;SDS011;24083;55.670;37.568;2023-09-30T12:44:35;10.10;;;5.15;;
22094;SDS011;24083;55.670;37.568;2023-09-30T12:47:01;13.65;;;6.43;;
22094;SDS011;24083;55.670;37.568;2023-09-30T12:49:42;10.07;;;6.00;;
22094;SDS011;24083;55.670;37.568;2023-09-30T12:52:09;8.07;;;5.70;;
22094;SDS011;24083;55.670;37.568;2023-09-30T12:54:35;9.23;;;5.90;;
22094;SDS011;24083;55.670;37.568;2023-09-30T12:57:00;11.57;;;6.22;;
22094;SDS011;24083;55.670;37.568;2023-09-30T12:59:26;12.15;;;6.22;;
22094;SDS011;24083;55.670;37.568;2023-09-30T13:01:53;7.15;;;5.45;;
22094;SDS011;24083;55.670;37.568;2023-09-30T13:04:19;11.18;;;6.13;;
22094;SDS011;24083;55.670;37.568;2023-09-30T13:06:44;10.00;;;5.70;;
22094;SDS011;24083;55.670;37.568;2023-09-30T13:09:11;10.73;;;5.70;;
22094;SDS011;24083;55.670;37.568;2023-09-30T13:11:45;15.00;;;5.70;;
22094;SDS011;24083;55.670;37.568;2023-09-30T13:20:31;14.93;;;6.35;;
22094;SDS011;24083;55.670;37.568;2023-09-30T13:23:00;11.85;;;5.72;;
22094;SDS011;24083;55.670;37.568;2023-09-30T13:25:49;8.73;;;5.40;;
22094;SDS011;24083;55.670;37.568;2023-09-30T13:28:16;12.25;;;6.05;;
22094;SDS011;24083;55.670;37.568;2023-09-30T13:30:42;8.43;;;5.55;;
22094;SDS011;24083;55.670;37.568;2023-09-30T13:33:10;11.88;;;5.97;;
22094;SDS011;24083;55.670;37.568;2023-09-30T13:35:35;9.13;;;5.80;;
22094;SDS011;24083;55.670;37.568;2023-09-30T13:38:02;11.25;;;5.72;;
22094;SDS011;24083;55.670;37.568;2023-09-30T13:40:50;15.75;;;6.30;;
22094;SDS011;24083;55.670;37.568;2023-09-30T13:43:20;11.02;;;5.50;;
22094;SDS011;24083;55.670;37.568;2023-09-30T13:45:47;12.38;;;5.60;;
22094;SDS011;24083;55.670;37.568;2023-09-30T13:48:14;8.05;;;5.45;;
22094;SDS011;24083;55.670;37.568;2023-09-30T13:50:41;10.70;;;5.68;;
22094;SDS011;24083;55.670;37.568;2023-09-30T13:53:11;17.60;;;6.30;;
22094;SDS011;24083;55.670;37.568;2023-09-30T13:55:42;9.23;;;5.93;;
22094;SDS011;24083;55.670;37.568;2023-09-30T14:00:52;11.40;;;6.03;;
22094;SDS011;24083;55.670;37.568;2023-09-30T14:03:18;13.05;;;6.30;;
22094;SDS011;24083;55.670;37.568;2023-09-30T14:05:45;13.57;;;6.15;;
22094;SDS011;24083;55.670;37.568;2023-09-30T14:08:11;11.60;;;6.10;;
22094;SDS011;24083;55.670;37.568;2023-09-30T14:10:40;12.93;;;5.82;;
22094;SDS011;24083;55.670;37.568;2023-09-30T14:13:21;12.27;;;6.18;;
22094;SDS011;24083;55.670;37.568;2023-09-30T14:15:55;14.15;;;6.57;;
22094;SDS011;24083;55.670;37.568;2023-09-30T14:18:34;16.75;;;6.60;;
22094;SDS011;24083;55.670;37.568;2023-09-30T14:21:17;12.02;;;6.53;;
22094;SDS011;24083;55.670;37.568;2023-09-30T14:23:47;11.93;;;6.72;;
22094;SDS011;24083;55.670;37.568;2023-09-30T14:26:12;16.63;;;6.47;;
22094;SDS011;24083;55.670;37.568;2023-09-30T14:28:40;10.50;;;6.60;;
22094;SDS011;24083;55.670;37.568;2023-09-30T14:31:12;12.88;;;6.70;;
22094;SDS011;24083;55.670;37.568;2023-09-30T14:33:40;15.75;;;6.90;;
22094;SDS011;24083;55.670;37.568;2023-09-30T14:36:17;18.50;;;6.80;;
22094;SDS011;24083;55.670;37.568;2023-09-30T14:38:46;14.27;;;6.28;;
22094;SDS011;24083;55.670;37.568;2023-09-30T14:41:15;12.85;;;6.57;;
22094;SDS011;24083;55.670;37.568;2023-09-30T14:43:43;15.65;;;7.10;;
22094;SDS011;24083;55.670;37.568;2023-09-30T14:46:15;9.82;;;6.28;;
22094;SDS011;24083;55.670;37.568;2023-09-30T14:48:41;11.70;;;6.50;;
22094;SDS011;24083;55.670;37.568;2023-09-30T14:51:10;13.32;;;6.40;;
22094;SDS011;24083;55.670;37.568;2023-09-30T14:53:37;12.50;;;6.40;;
22094;SDS011;24083;55.670;37.568;2023-09-30T14:56:15;16.45;;;7.00;;
22094;SDS011;24083;55.670;37.568;2023-09-30T15:01:45;12.73;;;6.85;;
22094;SDS011;24083;55.670;37.568;2023-09-30T15:04:12;12.10;;;7.03;;
22094;SDS011;24083;55.670;37.568;2023-09-30T15:06:37;18.25;;;7.32;;
22094;SDS011;24083;55.670;37.568;2023-09-30T15:09:04;15.35;;;7.30;;
22094;SDS011;24083;55.670;37.568;2023-09-30T15:11:31;16.45;;;7.68;;
22094;SDS011;24083;55.670;37.568;2023-09-30T15:13:59;15.02;;;7.78;;
22094;SDS011;24083;55.670;37.568;2023-09-30T15:16:27;18.15;;;7.78;;
22094;SDS011;24083;55.670;37.568;2023-09-30T15:18:53;21.67;;;8.25;;
22094;SDS011;24083;55.670;37.568;2023-09-30T15:21:19;20.10;;;8.50;;
22094;SDS011;24083;55.670;37.568;2023-09-30T15:23:48;17.95;;;8.15;;
22094;SDS011;24083;55.670;37.568;2023-09-30T15:26:14;15.35;;;7.72;;
22094;SDS011;24083;55.670;37.568;2023-09-30T15:28:42;19.45;;;8.50;;
22094;SDS011;24083;55.670;37.568;2023-09-30T15:31:09;18.02;;;8.30;;
22094;SDS011;24083;55.670;37.568;2023-09-30T15:33:38;16.42;;;7.40;;
22094;SDS011;24083;55.670;37.568;2023-09-30T15:36:15;17.65;;;8.15;;
22094;SDS011;24083;55.670;37.568;2023-09-30T15:38:45;20.08;;;7.88;;
22094;SDS011;24083;55.670;37.568;2023-09-30T15:41:13;15.95;;;7.68;;
22094;SDS011;24083;55.670;37.568;2023-09-30T15:49:30;25.77;;;8.57;;
22094;SDS011;24083;55.670;37.568;2023-09-30T15:51:56;18.30;;;9.23;;
22094;SDS011;24083;55.670;37.568;2023-09-30T15:57:20;19.17;;;8.90;;
22094;SDS011;24083;55.670;37.568;2023-09-30T16:02:16;24.77;;;9.65;;
22094;SDS011;24083;55.670;37.568;2023-09-30T16:04:43;24.52;;;10.68;;
22094;SDS011;24083;55.670;37.568;2023-09-30T16:07:13;30.48;;;10.65;;
22094;SDS011;24083;55.670;37.568;2023-09-30T16:09:39;21.48;;;9.48;;
22094;SDS011;24083;55.670;37.568;2023-09-30T16:12:06;26.20;;;9.65;;
22094;SDS011;24083;55.670;37.568;2023-09-30T16:14:34;26.27;;;9.40;;
22094;SDS011;24083;55.670;37.568;2023-09-30T16:19:33;19.63;;;8.63;;
22094;SDS011;24083;55.670;37.568;2023-09-30T16:21:59;22.50;;;8.68;;
22094;SDS011;24083;55.670;37.568;2023-09-30T16:24:28;15.60;;;7.57;;
22094;SDS011;24083;55.670;37.568;2023-09-30T16:27:06;17.23;;;8.65;;
22094;SDS011;24083;55.670;37.568;2023-09-30T16:29:31;16.73;;;8.45;;
22094;SDS011;24083;55.670;37.568;2023-09-30T16:32:01;14.50;;;6.80;;
22094;SDS011;24083;55.670;37.568;2023-09-30T16:34:28;16.80;;;8.48;;
22094;SDS011;24083;55.670;37.568;2023-09-30T16:36:56;22.33;;;8.40;;
22094;SDS011;24083;55.670;37.568;2023-09-30T16:39:22;14.55;;;8.38;;
22094;SDS011;24083;55.670;37.568;2023-09-30T16:41:49;13.68;;;8.00;;
22094;SDS011;24083;55.670;37.568;2023-09-30T16:44:15;17.77;;;8.50;;
22094;SDS011;24083;55.670;37.568;2023-09-30T16:46:50;15.73;;;8.65;;
22094;SDS011;24083;55.670;37.568;2023-09-30T16:49:15;17.25;;;8.77;;
22094;SDS011;24083;55.670;37.568;2023-09-30T16:54:08;19.38;;;7.82;;
22094;SDS011;24083;55.670;37.568;2023-09-30T16:56:34;17.73;;;8.40;;
22094;SDS011;24083;55.670;37.568;2023-09-30T16:59:02;18.98;;;8.65;;
22094;SDS011;24083;55.670;37.568;2023-09-30T17:04:01;13.00;;;8.23;;
22094;SDS011;24083;55.670;37.568;2023-09-30T17:08:58;13.48;;;7.35;;
22094;SDS011;24083;55.670;37.568;2023-09-30T17:11:24;17.43;;;8.33;;
22094;SDS011;24083;55.670;37.568;2023-09-30T17:13:55;17.80;;;8.65;;
22094;SDS011;24083;55.670;37.568;2023-09-30T17:21:42;17.05;;;8.63;;
22094;SDS011;24083;55.670;37.568;2023-09-30T17:24:10;12.57;;;8.38;;
22094;SDS011;24083;55.670;37.568;2023-09-30T17:26:36;13.27;;;7.63;;
22094;SDS011;24083;55.670;37.568;2023-09-30T17:29:15;14.85;;;8.55;;
22094;SDS011;24083;55.670;37.568;2023-09-30T17:31:49;17.73;;;8.48;;
22094;SDS011;24083;55.670;37.568;2023-09-30T17:34:29;15.95;;;8.10;;
22094;SDS011;24083;55.670;37.568;2023-09-30T17:36:56;15.30;;;8.45;;
22094;SDS011;24083;55.670;37.568;2023-09-30T17:39:21;14.43;;;8.10;;
22094;SDS011;24083;55.670;37.568;2023-09-30T17:41:47;12.95;;;8.40;;
22094;SDS011;24083;55.670;37.568;2023-09-30T17:46:43;11.73;;;6.78;;
22094;SDS011;24083;55.670;37.568;2023-09-30T17:49:14;17.00;;;8.27;;
22094;SDS011;24083;55.670;37.568;2023-09-30T17:51:42;11.88;;;6.15;;
22094;SDS011;24083;55.670;37.568;2023-09-30T17:54:23;13.35;;;6.43;;
22094;SDS011;24083;55.670;37.568;2023-09-30T17:56:48;15.20;;;8.50;;
22094;SDS011;24083;55.670;37.568;2023-09-30T17:59:14;19.52;;;7.43;;
22094;SDS011;24083;55.670;37.568;2023-09-30T18:01:41;19.50;;;8.48;;
22094;SDS011;24083;55.670;37.568;2023-09-30T18:04:13;14.85;;;9.02;;